ZKLFL NZWN-NZWB
Flight info
| Callsign | ZKLFL |
|---|---|
| Flight time | N/A |
| Altitude | 6000 |
| Route | AVPOD |
| Aircraft | BE20/L-SBGRY/S |
Departure
| Time | 2026-05-05 09:55 |
|---|---|
| Airport | Wellington International Airport (NZWN) |
Arrival
| Time | N/A |
|---|---|
| Airport | Woodbourne Airport (NZWB) |
| Time | Latitude | Longitude | Altitude | Speed | Heading |
|---|---|---|---|---|---|
| 2026-05-05 09:54 | -41.20702 | 174.60498 | 6001 ft | 224 kts | 249° |
| 2026-05-05 09:55 | -41.21380 | 174.58632 | 6001 ft | 224 kts | 246° |
| 2026-05-05 09:55 | -41.22111 | 174.56808 | 6000 ft | 223 kts | 245° |
| 2026-05-05 09:55 | -41.22864 | 174.55020 | 6000 ft | 222 kts | 244° |
| 2026-05-05 09:55 | -41.23632 | 174.53243 | 6000 ft | 221 kts | 243° |
| 2026-05-05 09:56 | -41.24403 | 174.51478 | 6000 ft | 221 kts | 243° |
| 2026-05-05 09:56 | -41.25173 | 174.49719 | 6001 ft | 220 kts | 243° |
| 2026-05-05 09:56 | -41.25943 | 174.47960 | 6001 ft | 220 kts | 243° |
| 2026-05-05 09:56 | -41.26713 | 174.46206 | 6001 ft | 220 kts | 243° |
| 2026-05-05 09:57 | -41.27483 | 174.44452 | 6001 ft | 219 kts | 243° |
| 2026-05-05 09:57 | -41.28242 | 174.42720 | 6001 ft | 219 kts | 243° |
| 2026-05-05 09:57 | -41.29009 | 174.40967 | 6001 ft | 219 kts | 243° |
| 2026-05-05 09:57 | -41.29776 | 174.39211 | 6001 ft | 219 kts | 243° |
| 2026-05-05 09:58 | -41.30540 | 174.37454 | 6001 ft | 219 kts | 243° |
| 2026-05-05 09:58 | -41.31303 | 174.35698 | 6001 ft | 219 kts | 243° |
| 2026-05-05 09:58 | -41.31971 | 174.33885 | 6012 ft | 218 kts | 248° |
| 2026-05-05 09:58 | -41.32655 | 174.32081 | 6000 ft | 219 kts | 246° |
| 2026-05-05 09:59 | -41.33382 | 174.30296 | 5997 ft | 219 kts | 244° |
| 2026-05-05 09:59 | -41.34114 | 174.28517 | 5997 ft | 219 kts | 244° |
| 2026-05-05 09:59 | -41.34845 | 174.26735 | 5996 ft | 219 kts | 244° |
| 2026-05-05 09:59 | -41.35574 | 174.24954 | 5996 ft | 219 kts | 244° |
| 2026-05-05 10:00 | -41.36299 | 174.23170 | 5996 ft | 219 kts | 244° |
| 2026-05-05 10:00 | -41.37016 | 174.21401 | 5936 ft | 220 kts | 245° |
| 2026-05-05 10:00 | -41.37836 | 174.19729 | 5631 ft | 220 kts | 227° |
| 2026-05-05 10:00 | -41.39179 | 174.18676 | 5318 ft | 230 kts | 203° |
| 2026-05-05 10:01 | -41.40221 | 174.18259 | 5144 ft | 232 kts | 193° |
| 2026-05-05 10:01 | -41.41837 | 174.18066 | 4899 ft | 234 kts | 181° |
| 2026-05-05 10:01 | -41.43445 | 174.18191 | 4661 ft | 235 kts | 175° |
| 2026-05-05 10:01 | -41.45059 | 174.18554 | 4535 ft | 230 kts | 171° |
| 2026-05-05 10:02 | -41.46575 | 174.18843 | 4409 ft | 223 kts | 174° |
| 2026-05-05 10:02 | -41.48140 | 174.19107 | 4286 ft | 227 kts | 176° |
| 2026-05-05 10:02 | -41.49602 | 174.18845 | 4140 ft | 199 kts | 207° |
| 2026-05-05 10:02 | -41.50517 | 174.17652 | 4030 ft | 177 kts | 249° |
| 2026-05-05 10:03 | -41.50588 | 174.16131 | 3994 ft | 157 kts | 287° |
| 2026-05-05 10:03 | -41.50264 | 174.14836 | 3972 ft | 135 kts | 290° |
| 2026-05-05 10:03 | -41.50035 | 174.13582 | 3998 ft | 143 kts | 279° |
| 2026-05-05 10:03 | -41.49971 | 174.12185 | 3981 ft | 161 kts | 271° |
| 2026-05-05 10:04 | -41.50024 | 174.10631 | 3925 ft | 169 kts | 267° |
| 2026-05-05 10:04 | -41.50136 | 174.09087 | 3819 ft | 166 kts | 265° |
| 2026-05-05 10:04 | -41.50267 | 174.07571 | 3714 ft | 165 kts | 264° |
| 2026-05-05 10:04 | -41.50401 | 174.06005 | 3442 ft | 174 kts | 265° |
| 2026-05-05 10:05 | -41.50531 | 174.04398 | 3097 ft | 175 kts | 265° |
| 2026-05-05 10:05 | -41.50658 | 174.02801 | 2750 ft | 172 kts | 265° |
| 2026-05-05 10:05 | -41.50774 | 174.01292 | 2365 ft | 156 kts | 266° |
| 2026-05-05 10:05 | -41.50880 | 173.99893 | 1956 ft | 147 kts | 266° |
| 2026-05-05 10:06 | -41.50988 | 173.98546 | 1705 ft | 150 kts | 264° |
| 2026-05-05 10:06 | -41.51105 | 173.97174 | 1484 ft | 145 kts | 266° |
| 2026-05-05 10:06 | -41.51202 | 173.95902 | 1238 ft | 135 kts | 265° |
| 2026-05-05 10:06 | -41.51297 | 173.94740 | 985 ft | 118 kts | 265° |
| 2026-05-05 10:07 | -41.51390 | 173.93632 | 761 ft | 121 kts | 264° |
| 2026-05-05 10:07 | -41.51480 | 173.92546 | 642 ft | 113 kts | 265° |
| 2026-05-05 10:07 | -41.51577 | 173.91343 | 749 ft | 141 kts | 264° |
| 2026-05-05 10:07 | -41.51682 | 173.90068 | 1285 ft | 135 kts | 264° |
| 2026-05-05 10:08 | -41.51790 | 173.88829 | 1867 ft | 137 kts | 264° |
| 2026-05-05 10:08 | -41.51896 | 173.87570 | 2496 ft | 138 kts | 264° |
| 2026-05-05 10:08 | -41.52006 | 173.86240 | 2950 ft | 153 kts | 264° |
| 2026-05-05 10:08 | -41.52132 | 173.84679 | 3041 ft | 185 kts | 264° |
| 2026-05-05 10:09 | -41.52277 | 173.82847 | 3006 ft | 209 kts | 264° |
| 2026-05-05 10:09 | -41.52440 | 173.80947 | 2986 ft | 207 kts | 261° |
| 2026-05-05 10:09 | -41.52851 | 173.79118 | 2984 ft | 206 kts | 249° |
| 2026-05-05 10:09 | -41.53417 | 173.77368 | 2981 ft | 205 kts | 245° |
| 2026-05-05 10:10 | -41.54213 | 173.75802 | 2975 ft | 206 kts | 221° |
| 2026-05-05 10:10 | -41.55519 | 173.75083 | 2978 ft | 207 kts | 185° |
| 2026-05-05 10:10 | -41.56902 | 173.75537 | 2978 ft | 206 kts | 148° |
| 2026-05-05 10:10 | -41.57802 | 173.76962 | 2981 ft | 201 kts | 114° |
| 2026-05-05 10:11 | -41.58134 | 173.78756 | 2986 ft | 204 kts | 96° |
| 2026-05-05 10:11 | -41.58152 | 173.80656 | 3143 ft | 203 kts | 77° |
| 2026-05-05 10:11 | -41.57437 | 173.82259 | 3406 ft | 203 kts | 38° |
| 2026-05-05 10:11 | -41.56177 | 173.83025 | 3767 ft | 199 kts | 13° |
| 2026-05-05 10:12 | -41.54832 | 173.83426 | 4116 ft | 198 kts | 11° |
| 2026-05-05 10:12 | -41.53551 | 173.84026 | 4459 ft | 199 kts | 25° |
| 2026-05-05 10:12 | -41.52444 | 173.85134 | 4791 ft | 202 kts | 44° |
| 2026-05-05 10:12 | -41.51553 | 173.86662 | 4886 ft | 215 kts | 53° |
| 2026-05-05 10:13 | -41.50975 | 173.88540 | 4985 ft | 225 kts | 76° |
| 2026-05-05 10:13 | -41.50639 | 173.90622 | 4981 ft | 235 kts | 72° |
| 2026-05-05 10:13 | -41.50119 | 173.92714 | 5003 ft | 240 kts | 68° |
| 2026-05-05 10:13 | -41.49531 | 173.94819 | 5005 ft | 244 kts | 67° |
| 2026-05-05 10:14 | -41.48912 | 173.96951 | 5003 ft | 247 kts | 66° |
| 2026-05-05 10:14 | -41.48282 | 173.99093 | 5002 ft | 249 kts | 66° |
| 2026-05-05 10:14 | -41.47654 | 174.01248 | 5006 ft | 250 kts | 66° |
| 2026-05-05 10:14 | -41.47022 | 174.03420 | 5004 ft | 251 kts | 66° |
| 2026-05-05 10:15 | -41.46384 | 174.05598 | 5007 ft | 252 kts | 66° |
| 2026-05-05 10:15 | -41.45745 | 174.07772 | 5007 ft | 252 kts | 66° |
| 2026-05-05 10:15 | -41.45113 | 174.09925 | 5008 ft | 252 kts | 66° |
| 2026-05-05 10:15 | -41.44475 | 174.12109 | 5009 ft | 253 kts | 66° |
| 2026-05-05 10:16 | -41.43847 | 174.14259 | 5002 ft | 236 kts | 67° |
| 2026-05-05 10:16 | -41.43285 | 174.16212 | 4998 ft | 214 kts | 67° |
| 2026-05-05 10:16 | -41.43083 | 174.18057 | 4984 ft | 191 kts | 98° |
| 2026-05-05 10:16 | -41.43723 | 174.19612 | 5016 ft | 196 kts | 133° |
| 2026-05-05 10:17 | -41.44827 | 174.20684 | 5013 ft | 197 kts | 156° |
| 2026-05-05 10:17 | -41.46106 | 174.20956 | 5004 ft | 180 kts | 189° |
| 2026-05-05 10:17 | -41.47246 | 174.20370 | 5015 ft | 175 kts | 217° |
| 2026-05-05 10:17 | -41.48125 | 174.19317 | 5010 ft | 170 kts | 223° |
| 2026-05-05 10:18 | -41.49107 | 174.18377 | 4971 ft | 173 kts | 229° |
| 2026-05-05 10:18 | -41.49571 | 174.17064 | 4931 ft | 143 kts | 263° |
| 2026-05-05 10:18 | -41.49685 | 174.15641 | 5013 ft | 157 kts | 268° |
| 2026-05-05 10:18 | -41.49770 | 174.14174 | 4978 ft | 162 kts | 268° |
| 2026-05-05 10:19 | -41.49869 | 174.12635 | 4836 ft | 171 kts | 267° |
| 2026-05-05 10:19 | -41.49988 | 174.11014 | 4657 ft | 180 kts | 266° |
| 2026-05-05 10:19 | -41.50123 | 174.09291 | 4358 ft | 192 kts | 266° |
| 2026-05-05 10:19 | -41.50269 | 174.07502 | 3825 ft | 196 kts | 265° |
| 2026-05-05 10:20 | -41.50413 | 174.05684 | 3236 ft | 196 kts | 265° |
| 2026-05-05 10:20 | -41.50553 | 174.03955 | 3000 ft | 179 kts | 265° |
| 2026-05-05 10:20 | -41.50687 | 174.02347 | 2888 ft | 171 kts | 264° |
| 2026-05-05 10:20 | -41.50811 | 174.00842 | 2432 ft | 159 kts | 265° |
| 2026-05-05 10:21 | -41.50925 | 173.99400 | 1911 ft | 154 kts | 265° |
| 2026-05-05 10:21 | -41.51032 | 173.98048 | 1590 ft | 139 kts | 265° |
| 2026-05-05 10:21 | -41.51137 | 173.96804 | 1308 ft | 133 kts | 265° |
| 2026-05-05 10:21 | -41.51234 | 173.95570 | 1124 ft | 128 kts | 265° |
| 2026-05-05 10:22 | -41.51327 | 173.94416 | 1043 ft | 116 kts | 265° |
| 2026-05-05 10:22 | -41.51416 | 173.93322 | 924 ft | 120 kts | 265° |
| 2026-05-05 10:22 | -41.51506 | 173.92224 | 806 ft | 120 kts | 266° |
| 2026-05-05 10:22 | -41.51587 | 173.91150 | 601 ft | 110 kts | 266° |
| 2026-05-05 10:23 | -41.51664 | 173.90128 | 427 ft | 112 kts | 265° |
| 2026-05-05 10:23 | -41.51752 | 173.89037 | 468 ft | 126 kts | 264° |
| 2026-05-05 10:23 | -41.51847 | 173.87867 | 1058 ft | 119 kts | 265° |
| 2026-05-05 10:23 | -41.51934 | 173.86744 | 1475 ft | 131 kts | 265° |
| 2026-05-05 10:24 | -41.52036 | 173.85417 | 1665 ft | 150 kts | 264° |
| 2026-05-05 10:24 | -41.52152 | 173.83982 | 1910 ft | 159 kts | 264° |
| 2026-05-05 10:24 | -41.52267 | 173.82508 | 2084 ft | 163 kts | 265° |
| 2026-05-05 10:24 | -41.52382 | 173.80985 | 2314 ft | 165 kts | 266° |
| 2026-05-05 10:25 | -41.52596 | 173.79495 | 2528 ft | 165 kts | 245° |
| 2026-05-05 10:25 | -41.53426 | 173.78493 | 2749 ft | 165 kts | 200° |
| 2026-05-05 10:25 | -41.54562 | 173.78576 | 2965 ft | 176 kts | 154° |
| 2026-05-05 10:25 | -41.55357 | 173.79735 | 3359 ft | 174 kts | 109° |
| 2026-05-05 10:26 | -41.55352 | 173.81300 | 3688 ft | 171 kts | 68° |
| 2026-05-05 10:26 | -41.54759 | 173.82660 | 4017 ft | 170 kts | 49° |
| 2026-05-05 10:26 | -41.53962 | 173.83825 | 4350 ft | 170 kts | 42° |
| 2026-05-05 10:26 | -41.53089 | 173.84912 | 4698 ft | 176 kts | 39° |
| 2026-05-05 10:27 | -41.52147 | 173.86041 | 4944 ft | 191 kts | 40° |
| 2026-05-05 10:27 | -41.51217 | 173.87400 | 4997 ft | 205 kts | 47° |
| 2026-05-05 10:27 | -41.50309 | 173.88947 | 5005 ft | 218 kts | 50° |
| 2026-05-05 10:27 | -41.49367 | 173.90578 | 5008 ft | 226 kts | 50° |
| 2026-05-05 10:28 | -41.48391 | 173.92246 | 5006 ft | 231 kts | 50° |
| 2026-05-05 10:28 | -41.47391 | 173.93956 | 5003 ft | 235 kts | 50° |
| 2026-05-05 10:28 | -41.46378 | 173.95686 | 5004 ft | 238 kts | 50° |
| 2026-05-05 10:28 | -41.45358 | 173.97433 | 5005 ft | 239 kts | 50° |
| 2026-05-05 10:29 | -41.44333 | 173.99184 | 5006 ft | 240 kts | 50° |
| 2026-05-05 10:29 | -41.43297 | 174.00943 | 5006 ft | 241 kts | 50° |
| 2026-05-05 10:29 | -41.42274 | 174.02676 | 5009 ft | 242 kts | 49° |
| 2026-05-05 10:29 | -41.41238 | 174.04447 | 5008 ft | 242 kts | 50° |
| 2026-05-05 10:30 | -41.40244 | 174.06144 | 5000 ft | 222 kts | 49° |
| 2026-05-05 10:30 | -41.39317 | 174.07722 | 5004 ft | 216 kts | 49° |
| 2026-05-05 10:30 | -41.38386 | 174.09297 | 5005 ft | 209 kts | 49° |
| 2026-05-05 10:30 | -41.37528 | 174.10755 | 4995 ft | 187 kts | 49° |
| 2026-05-05 10:31 | -41.36741 | 174.12096 | 5003 ft | 183 kts | 48° |
| 2026-05-05 10:31 | -41.36158 | 174.13522 | 4996 ft | 177 kts | 71° |
| 2026-05-05 10:31 | -41.36070 | 174.15168 | 5011 ft | 182 kts | 95° |
| 2026-05-05 10:31 | -41.36486 | 174.16756 | 5010 ft | 185 kts | 120° |
| 2026-05-05 10:32 | -41.37375 | 174.18070 | 5021 ft | 197 kts | 143° |
| 2026-05-05 10:32 | -41.38557 | 174.19001 | 5023 ft | 202 kts | 155° |
| 2026-05-05 10:32 | -41.39880 | 174.19732 | 5016 ft | 204 kts | 162° |
| 2026-05-05 10:32 | -41.41255 | 174.20233 | 5014 ft | 205 kts | 169° |
| 2026-05-05 10:33 | -41.42665 | 174.20540 | 5014 ft | 206 kts | 175° |
| 2026-05-05 10:33 | -41.44079 | 174.20708 | 5013 ft | 207 kts | 176° |
| 2026-05-05 10:33 | -41.45508 | 174.20902 | 5012 ft | 207 kts | 174° |
| 2026-05-05 10:33 | -41.46940 | 174.20870 | 5010 ft | 204 kts | 194° |
| 2026-05-05 10:34 | -41.48200 | 174.20177 | 5009 ft | 190 kts | 210° |
| 2026-05-05 10:34 | -41.49195 | 174.19122 | 4994 ft | 177 kts | 240° |
| 2026-05-05 10:34 | -41.49481 | 174.17573 | 5043 ft | 172 kts | 265° |
| 2026-05-05 10:34 | -41.49655 | 174.15967 | 5018 ft | 177 kts | 264° |
| 2026-05-05 10:35 | -41.49831 | 174.14335 | 5009 ft | 179 kts | 265° |
| 2026-05-05 10:35 | -41.49940 | 174.12637 | 4806 ft | 185 kts | 268° |
| 2026-05-05 10:35 | -41.50030 | 174.11018 | 4772 ft | 167 kts | 268° |
| 2026-05-05 10:35 | -41.50125 | 174.09444 | 4528 ft | 169 kts | 267° |
| 2026-05-05 10:36 | -41.50235 | 174.07883 | 3949 ft | 170 kts | 266° |
| 2026-05-05 10:36 | -41.50358 | 174.06350 | 3514 ft | 162 kts | 264° |
| 2026-05-05 10:36 | -41.50483 | 174.04860 | 3107 ft | 160 kts | 265° |
| 2026-05-05 10:36 | -41.50603 | 174.03417 | 2691 ft | 151 kts | 265° |
| 2026-05-05 10:37 | -41.50718 | 174.02052 | 2461 ft | 147 kts | 265° |
| 2026-05-05 10:37 | -41.50827 | 174.00691 | 2276 ft | 144 kts | 265° |
| 2026-05-05 10:37 | -41.50928 | 173.99403 | 1991 ft | 137 kts | 265° |
| 2026-05-05 10:37 | -41.51025 | 173.98172 | 1741 ft | 133 kts | 265° |
| 2026-05-05 10:38 | -41.51120 | 173.96956 | 1472 ft | 134 kts | 265° |
| 2026-05-05 10:38 | -41.51219 | 173.95738 | 1246 ft | 131 kts | 265° |
| 2026-05-05 10:38 | -41.51315 | 173.94583 | 1117 ft | 119 kts | 265° |
| 2026-05-05 10:38 | -41.51401 | 173.93513 | 986 ft | 116 kts | 265° |
| 2026-05-05 10:39 | -41.51482 | 173.92507 | 821 ft | 107 kts | 265° |
| 2026-05-05 10:39 | -41.51559 | 173.91545 | 680 ft | 105 kts | 266° |
| 2026-05-05 10:39 | -41.51636 | 173.90548 | 605 ft | 112 kts | 266° |
| 2026-05-05 10:39 | -41.51712 | 173.89549 | 398 ft | 103 kts | 265° |
| 2026-05-05 10:40 | -41.51787 | 173.88590 | 414 ft | 111 kts | 264° |
| 2026-05-05 10:40 | -41.51874 | 173.87531 | 763 ft | 124 kts | 264° |
| 2026-05-05 10:40 | -41.51974 | 173.86266 | 1030 ft | 142 kts | 265° |
| 2026-05-05 10:40 | -41.52081 | 173.84925 | 1334 ft | 151 kts | 264° |
| 2026-05-05 10:41 | -41.52194 | 173.83531 | 1709 ft | 151 kts | 264° |
| 2026-05-05 10:41 | -41.52303 | 173.82134 | 2077 ft | 152 kts | 264° |
| 2026-05-05 10:41 | -41.52406 | 173.80727 | 2441 ft | 153 kts | 264° |
| 2026-05-05 10:41 | -41.52659 | 173.79353 | 2791 ft | 155 kts | 239° |
| 2026-05-05 10:42 | -41.54596 | 173.78448 | 3473 ft | 163 kts | 162° |
| 2026-05-05 10:42 | -41.55498 | 173.79296 | 3804 ft | 165 kts | 125° |
| 2026-05-05 10:42 | -41.55844 | 173.80747 | 4138 ft | 164 kts | 85° |
| 2026-05-05 10:43 | -41.55465 | 173.82145 | 4477 ft | 161 kts | 48° |
| 2026-05-05 10:43 | -41.54637 | 173.83203 | 4955 ft | 168 kts | 36° |
| 2026-05-05 10:43 | -41.53731 | 173.84192 | 5636 ft | 168 kts | 36° |
| 2026-05-05 10:43 | -41.52795 | 173.85239 | 5981 ft | 191 kts | 37° |
| 2026-05-05 10:44 | -41.51753 | 173.86543 | 6005 ft | 217 kts | 44° |
| 2026-05-05 10:44 | -41.50747 | 173.88123 | 6004 ft | 228 kts | 48° |
| 2026-05-05 10:44 | -41.49768 | 173.89803 | 6005 ft | 235 kts | 50° |
| 2026-05-05 10:44 | -41.48751 | 173.91581 | 6004 ft | 241 kts | 50° |
| 2026-05-05 10:45 | -41.47724 | 173.93366 | 6002 ft | 244 kts | 49° |
| 2026-05-05 10:45 | -41.46683 | 173.95167 | 6001 ft | 246 kts | 50° |
| 2026-05-05 10:45 | -41.45651 | 173.96961 | 6004 ft | 248 kts | 50° |
| 2026-05-05 10:45 | -41.44595 | 173.98788 | 6004 ft | 249 kts | 49° |
| 2026-05-05 10:46 | -41.43541 | 174.00619 | 6004 ft | 249 kts | 50° |
| 2026-05-05 10:46 | -41.42629 | 174.02580 | 5984 ft | 252 kts | 68° |
| 2026-05-05 10:46 | -41.42447 | 174.04098 | 5998 ft | 250 kts | 89° |
| 2026-05-05 10:46 | -41.43035 | 174.07065 | 6008 ft | 248 kts | 111° |
| 2026-05-05 10:47 | -41.43500 | 174.08454 | 6007 ft | 246 kts | 114° |
| 2026-05-05 10:47 | -41.44249 | 174.10499 | 6009 ft | 245 kts | 115° |
| 2026-05-05 10:47 | -41.44993 | 174.12462 | 6377 ft | 226 kts | 115° |
| 2026-05-05 10:47 | -41.45708 | 174.14326 | 6487 ft | 232 kts | 116° |
| 2026-05-05 10:48 | -41.46209 | 174.15637 | 6590 ft | 237 kts | 115° |
| 2026-05-05 10:48 | -41.48942 | 174.22286 | 6947 ft | 256 kts | 118° |
| 2026-05-05 10:49 | -41.50133 | 174.25052 | 6996 ft | 262 kts | 118° |
| 2026-05-05 10:49 | -41.50735 | 174.26446 | 7004 ft | 262 kts | 118° |
| 2026-05-05 10:49 | -41.51644 | 174.28548 | 7009 ft | 262 kts | 118° |
| 2026-05-05 10:49 | -41.52389 | 174.30750 | 7010 ft | 260 kts | 103° |
| 2026-05-05 10:50 | -41.52626 | 174.33127 | 7013 ft | 258 kts | 89° |
| 2026-05-05 10:50 | -41.52567 | 174.35516 | 7012 ft | 257 kts | 83° |
| 2026-05-05 10:50 | -41.52356 | 174.37885 | 7012 ft | 257 kts | 79° |
| 2026-05-05 10:50 | -41.52065 | 174.40237 | 7012 ft | 256 kts | 77° |
| 2026-05-05 10:51 | -41.51733 | 174.42575 | 7013 ft | 256 kts | 76° |
| 2026-05-05 10:51 | -41.51381 | 174.44902 | 7013 ft | 256 kts | 75° |
| 2026-05-05 10:51 | -41.50956 | 174.47210 | 7010 ft | 254 kts | 66° |
| 2026-05-05 10:51 | -41.50119 | 174.49264 | 7022 ft | 251 kts | 55° |
| 2026-05-05 10:52 | -41.49221 | 174.51291 | 6829 ft | 254 kts | 57° |
| 2026-05-05 10:52 | -41.48318 | 174.53313 | 6482 ft | 254 kts | 56° |
| 2026-05-05 10:52 | -41.47410 | 174.55310 | 6257 ft | 249 kts | 56° |
| 2026-05-05 10:52 | -41.46516 | 174.57267 | 6029 ft | 246 kts | 56° |
| 2026-05-05 10:53 | -41.45632 | 174.59200 | 5804 ft | 243 kts | 56° |
| 2026-05-05 10:53 | -41.44760 | 174.61110 | 5513 ft | 234 kts | 56° |
| 2026-05-05 10:53 | -41.43958 | 174.62872 | 5059 ft | 217 kts | 56° |
| 2026-05-05 10:53 | -41.43201 | 174.64545 | 4606 ft | 204 kts | 56° |
| 2026-05-05 10:54 | -41.42475 | 174.66152 | 4153 ft | 198 kts | 56° |
| 2026-05-05 10:54 | -41.41780 | 174.67687 | 3695 ft | 189 kts | 56° |
| 2026-05-05 10:54 | -41.41087 | 174.69204 | 3044 ft | 195 kts | 56° |
| 2026-05-05 10:54 | -41.40378 | 174.70737 | 2423 ft | 192 kts | 56° |
| 2026-05-05 10:55 | -41.39697 | 174.72195 | 2046 ft | 177 kts | 55° |
| 2026-05-05 10:55 | -41.39048 | 174.73505 | 1649 ft | 163 kts | 53° |
| 2026-05-05 10:55 | -41.38413 | 174.74707 | 1474 ft | 153 kts | 51° |
| 2026-05-05 10:55 | -41.37793 | 174.75813 | 1341 ft | 145 kts | 51° |
| 2026-05-05 10:56 | -41.37185 | 174.76852 | 1207 ft | 140 kts | 50° |
| 2026-05-05 10:56 | -41.36613 | 174.77816 | 919 ft | 124 kts | 50° |
| 2026-05-05 10:56 | -41.36104 | 174.78630 | 682 ft | 111 kts | 47° |
| 2026-05-05 10:56 | -41.35603 | 174.79412 | 527 ft | 110 kts | 45° |
| 2026-05-05 10:57 | -41.35074 | 174.80129 | 440 ft | 100 kts | 38° |
| 2026-05-05 10:57 | -41.34464 | 174.80535 | 269 ft | 98 kts | 14° |
| 2026-05-05 10:57 | -41.33845 | 174.80611 | 104 ft | 87 kts | 4° |
| 2026-05-05 10:57 | -41.33206 | 174.80651 | 12 ft | 92 kts | 6° |
| 2026-05-05 10:58 | -41.32762 | 174.80688 | 8 ft | 43 kts | 0° |
| 2026-05-05 10:58 | -41.32679 | 174.80601 | 8 ft | 16 kts | 276° |
| 2026-05-05 10:58 | -41.32663 | 174.80491 | 8 ft | 9 kts | 355° |
| 2026-05-05 10:58 | -41.32654 | 174.80492 | 8 ft | 0 kts | 24° |
| 2026-05-05 10:59 | -41.32654 | 174.80493 | 8 ft | 0 kts | 24° |